Latest Weather Observations for Oakey

IDQ60801

Issued at 9:32 pm EST Saturday 23 May 2015 (issued every 30 minutes, with the page automatically refreshed every 10 minutes)

About weather observations | Map of weather stations | Latest weather observations for QLD | Other Formats
Station Details ID: 041359 Name: OAKEY AERO Lat: -27.40 Lon: 151.74 Height: 405.69 m
Data from the previous 72 hours. | See also: Recent months at Oakey
Date/Time
EST
Temp
°C
App
Temp
°C
Dew
Point
Rel
Hum
%
Delta-T
°C
Wind Press
QNH
hPa
Press
MSL
hPa
Rain
since 9 am
mm
Dir
 
Spd
km/h
Gust
km/h
Spd
kts
Gust
kts
23/09:30pm 8.6 6.5 6.6 87 0.9 SSE 7 9 4 5 1027.0 - 0.0
23/09:00pm 8.9 6.8 6.7 86 1.0 SSE 7 9 4 5 1027.0 1026.4 0.0
23/08:30pm 9.1 6.6 6.5 84 1.2 SE 9 11 5 6 1026.8 - 0.0
23/08:00pm 10.2 6.8 7.6 84 1.3 S 15 19 8 10 1026.7 - 0.0
23/07:30pm 10.1 7.1 7.5 84 1.3 ESE 13 13 7 7 1026.5 - 0.0
23/07:00pm 11.0 7.9 7.3 78 1.8 E 13 15 7 8 1026.2 - 0.0
23/06:30pm 12.1 8.7 7.8 75 2.1 ENE 15 17 8 9 1025.8 - 0.0
23/06:00pm 12.9 9.9 7.8 71 2.5 E 13 17 7 9 1025.5 1025.0 0.0
23/05:30pm 14.4 11.0 7.7 64 3.4 E 15 17 8 9 1025.2 - 0.0
23/05:00pm 16.1 11.8 7.8 58 4.3 E 20 28 11 15 1025.0 - 0.0
23/04:30pm 17.4 11.5 7.7 53 5.0 ENE 28 33 15 18 1024.8 - 0.0
23/04:00pm 18.1 12.7 8.1 52 5.2 ENE 26 32 14 17 1024.5 - 0.0
23/03:30pm 19.0 14.7 7.8 48 5.8 E 20 26 11 14 1024.1 - 0.0
23/03:00pm 19.0 14.1 7.1 46 6.1 ENE 22 32 12 17 1023.9 1023.3 0.0
23/02:30pm 18.9 14.5 7.4 47 6.0 ENE 20 32 11 17 1023.7 - 0.0
23/02:00pm 18.1 14.6 7.2 49 5.6 SE 15 22 8 12 1023.7 - 0.0
23/01:30pm 18.7 16.0 7.5 48 5.8 SE 11 19 6 10 1023.7 - 0.0
23/01:00pm 17.8 14.0 7.5 51 5.3 SSE 17 24 9 13 1024.0 - 0.0
23/12:30pm 18.7 15.1 8.4 51 5.4 ESE 17 20 9 11 1024.2 - 0.0
23/12:00pm 17.8 15.2 7.8 52 5.2 E 11 19 6 10 1024.4 1023.8 0.0
23/11:30am 16.6 13.9 7.3 54 4.7 SE 11 19 6 10 1024.7 - 0.0
23/11:00am 16.7 14.9 7.9 56 4.5 E 7 13 4 7 1025.0 - 0.0
23/10:30am 15.9 13.0 8.2 60 4.0 SSE 13 19 7 10 1025.2 - 0.0
23/10:00am 15.1 12.7 8.8 66 3.3 S 11 15 6 8 1025.3 - 0.0
23/09:30am 13.5 10.3 8.6 72 2.5 S 15 20 8 11 1025.1 - 0.0
23/09:02am 12.2 9.6 9.2 82 1.5 S 13 17 7 9 1024.9 - 0.0
23/09:00am 12.0 9.7 9.0 82 1.5 SSW 11 15 6 8 1025.0 1024.5 0.0
23/08:30am 10.3 8.9 8.9 91 0.7 SSE 6 11 3 6 1024.8 - 0.0
23/08:00am 9.8 7.8 8.7 93 0.6 SSW 9 11 5 6 1024.4 - 0.0
23/07:30am 9.8 7.4 8.7 93 0.6 SSW 11 13 6 7 1023.9 - 0.0
23/07:00am 9.7 7.3 8.6 93 0.5 SSW 11 13 6 7 1023.5 - 0.0
23/06:30am 9.8 8.3 8.6 92 0.6 S 6 11 3 6 1023.1 - 0.0
23/06:00am 10.0 7.6 8.8 92 0.6 SSW 11 15 6 8 1022.6 1022.0 0.0
23/05:30am 10.2 7.5 8.8 91 0.7 SSW 13 17 7 9 1022.3 - 0.0
23/05:00am 10.5 8.6 8.9 90 0.8 S 9 15 5 8 1022.3 - 0.0
23/04:30am 10.1 7.4 8.9 92 0.6 SW 13 19 7 10 1021.9 - 0.0
23/04:24am 9.8 7.3 8.4 91 0.7 SW 11 15 6 8 1021.8 - 0.0
23/04:00am 10.3 6.8 8.7 90 0.8 SW 17 22 9 12 1021.7 - 0.0
23/03:30am 10.5 6.7 8.9 90 0.8 SW 19 22 10 12 1022.0 - 0.0
23/03:17am 10.7 6.9 9.0 89 0.9 SW 19 20 10 11 1022.1 - 0.0
23/03:11am 10.7 7.3 9.0 89 0.9 SW 17 20 9 11 1022.1 - 0.0
23/03:00am 10.9 7.1 9.2 89 0.9 SW 19 20 10 11 1022.1 1021.5 0.0
23/02:30am 10.7 9.3 9.5 92 0.6 W 7 9 4 5 1022.0 - 0.0
23/02:00am 10.8 8.7 9.6 92 0.6 WNW 11 15 6 8 1022.1 - 0.0
23/01:30am 11.0 8.5 9.6 91 0.7 W 13 19 7 10 1022.2 - 0.0
23/01:00am 10.9 8.7 9.5 91 0.7 WNW 11 13 6 7 1022.2 - 0.0
23/12:30am 11.0 9.2 9.4 90 0.8 W 9 13 5 7 1022.4 - 0.0
23/12:00am 11.0 9.2 9.4 90 0.8 W 9 13 5 7 1022.3 1021.7 0.0
 
Date/Time
EST
Temp
°C
App
Temp
°C
Dew
Point
Rel
Hum
%
Delta-T
°C
Wind Press
QNH
hPa
Press
MSL
hPa
Rain
since 9 am
mm
Dir
 
Spd
km/h
Gust
km/h
Spd
kts
Gust
kts
22/11:30pm 11.0 8.4 9.4 90 0.8 W 13 19 7 10 1022.2 - 0.0
22/11:00pm 11.2 8.6 9.5 89 0.9 W 13 19 7 10 1022.3 - 0.0
22/10:30pm 11.3 7.9 9.2 87 1.1 W 17 20 9 11 1022.4 - 0.0
22/10:00pm 11.3 7.9 9.0 86 1.2 W 17 22 9 12 1022.6 - 0.0
22/09:30pm 11.3 7.5 9.0 86 1.2 W 19 24 10 13 1022.5 - 0.0
22/09:25pm 11.3 7.3 8.9 85 1.2 W 20 24 11 13 1022.6 - 0.0
22/09:00pm 11.2 7.2 8.9 86 1.2 W 20 28 11 15 1022.2 1021.6 0.0
22/08:30pm 10.9 6.1 8.7 86 1.1 W 24 30 13 16 1022.0 - 0.0
22/08:00pm 11.2 6.3 8.6 84 1.3 W 24 30 13 16 1021.5 - 0.0
22/07:30pm 11.4 6.1 8.6 83 1.4 W 26 33 14 18 1021.4 - 0.0
22/07:00pm 11.5 6.3 8.7 83 1.4 W 26 32 14 17 1021.2 - 0.0
22/06:30pm 11.6 5.5 8.3 80 1.7 W 30 39 16 21 1020.7 - 0.0
22/06:00pm 12.0 8.0 8.3 78 1.9 WSW 19 24 10 13 1020.6 1020.0 0.0
22/05:30pm 12.1 7.1 8.0 76 2.1 WSW 24 33 13 18 1020.3 - 0.0
22/05:00pm 12.3 7.3 8.0 75 2.2 WSW 24 32 13 17 1019.8 - 0.0
22/04:30pm 12.4 6.9 7.7 73 2.3 WSW 26 33 14 18 1019.4 - 0.0
22/04:00pm 12.8 6.9 7.5 70 2.6 WSW 28 33 15 18 1019.0 - 0.0
22/03:30pm 13.2 6.5 7.4 68 2.9 W 32 39 17 21 1018.9 - 0.0
22/03:00pm 12.8 5.7 6.4 65 3.1 WSW 33 44 18 24 1018.9 1018.3 0.0
22/02:30pm 12.9 6.1 7.1 68 2.9 WSW 32 41 17 22 1018.9 - 0.0
22/02:00pm 13.0 6.1 6.6 65 3.1 W 32 46 17 25 1018.8 - 0.0
22/01:30pm 13.0 5.7 7.2 68 2.9 W 35 43 19 23 1018.9 - 0.0
22/01:00pm 13.4 5.7 7.2 66 3.1 W 37 46 20 25 1019.0 - 0.0
22/12:30pm 13.5 6.6 6.6 63 3.4 W 32 39 17 21 1019.1 - 0.0
22/12:00pm 13.5 5.3 6.4 62 3.5 WSW 39 48 21 26 1019.5 1018.9 0.0
22/11:30am 13.2 5.3 6.1 62 3.4 WSW 37 50 20 27 1019.6 - 0.0
22/11:00am 13.6 5.9 7.2 65 3.2 W 37 50 20 27 1019.9 - 0.0
22/10:30am 12.2 4.3 6.3 67 2.9 W 37 46 20 25 1020.2 - 0.0
22/10:00am 12.1 5.4 7.4 73 2.3 W 32 39 17 21 1020.4 - 0.0
22/09:30am 12.2 5.3 7.1 71 2.5 W 33 43 18 23 1020.3 - 0.0
22/09:00am 11.2 5.7 7.7 79 1.7 W 26 37 14 20 1020.1 1019.5 6.0
22/08:36am 10.7 4.7 8.6 87 1.1 W 30 41 16 22 1019.9 - 6.0
22/08:30am 10.7 4.3 8.6 87 1.1 W 32 41 17 22 1019.9 - 6.0
22/08:00am 10.0 4.8 8.8 92 0.6 W 26 32 14 17 1019.8 - 6.0
22/07:30am 9.4 4.9 8.6 95 0.4 W 22 30 12 16 1019.5 - 6.0
22/07:00am 9.0 5.0 8.2 95 0.4 W 19 24 10 13 1019.5 - 6.0
22/06:30am 8.9 4.6 7.7 92 0.6 W 20 26 11 14 1019.0 - 6.0
22/06:00am 8.9 4.8 8.0 94 0.4 W 19 20 10 11 1018.4 1017.7 6.0
22/05:30am 9.2 6.7 8.1 93 0.5 WNW 11 13 6 7 1018.1 - 6.0
22/05:00am 9.3 7.5 7.9 91 0.7 WNW 7 9 4 5 1017.8 - 6.0
22/04:30am 9.8 7.6 7.9 88 0.9 WSW 9 11 5 6 1017.7 - 6.0
22/04:00am 10.2 7.6 7.8 85 1.2 WSW 11 15 6 8 1017.9 - 6.0
22/03:30am 11.0 6.4 8.0 82 1.5 WSW 22 30 12 16 1018.4 - 6.0
22/03:00am 11.5 5.0 8.2 80 1.7 WSW 32 43 17 23 1018.3 1017.6 6.0
22/02:47am 11.8 5.2 8.5 80 1.7 SW 33 46 18 25 1018.4 - 6.0
22/02:30am 12.6 5.8 10.5 87 1.1 WSW 37 50 20 27 1018.3 - 6.0
22/02:26am 13.1 7.6 11.7 91 0.8 WSW 32 48 17 26 1018.1 - 6.0
22/02:05am 13.5 10.6 13.0 97 0.3 WSW 20 28 11 15 1018.1 - 6.0
22/02:00am 13.5 10.3 13.0 97 0.3 WSW 22 28 12 15 1018.1 - 6.0
22/01:35am 13.7 10.6 13.4 98 0.2 WSW 22 32 12 17 1018.1 - 5.6
22/01:30am 13.9 11.2 13.6 98 0.2 W 20 26 11 14 1018.1 - 5.6
22/01:07am 14.1 11.5 13.9 99 0.1 WNW 20 24 11 13 1018.3 - 5.4
22/01:00am 14.1 11.5 13.9 99 0.1 WNW 20 24 11 13 1018.4 - 5.2
22/12:48am 14.1 12.1 13.9 99 0.1 WNW 17 20 9 11 1018.5 - 5.2
22/12:30am 14.0 11.6 13.7 98 0.2 NW 19 24 10 13 1018.5 - 5.0
22/12:17am 14.0 11.9 13.7 98 0.2 NW 17 20 9 11 1018.7 - 5.0
22/12:00am 14.0 11.9 13.5 97 0.3 NW 17 20 9 11 1018.9 1018.3 5.0
 
Date/Time
EST
Temp
°C
App
Temp
°C
Dew
Point
Rel
Hum
%
Delta-T
°C
Wind Press
QNH
hPa
Press
MSL
hPa
Rain
since 9 am
mm
Dir
 
Spd
km/h
Gust
km/h
Spd
kts
Gust
kts
21/11:30pm 14.0 12.6 13.5 97 0.3 WNW 13 17 7 9 1019.3 - 5.0
21/11:09pm 13.9 12.9 13.4 97 0.3 NW 11 17 6 9 1019.3 - 5.0
21/11:00pm 14.0 13.4 13.5 97 0.3 NW 9 13 5 7 1019.3 - 5.0
21/10:30pm 14.0 13.0 13.5 97 0.3 WNW 11 15 6 8 1019.5 - 5.0
21/10:17pm 14.0 12.6 13.5 97 0.3 WNW 13 19 7 10 1019.6 - 5.0
21/10:00pm 14.0 12.3 13.7 98 0.2 WNW 15 19 8 10 1019.6 - 5.0
21/09:45pm 14.1 12.9 13.9 99 0.1 NW 13 17 7 9 1019.7 - 5.0
21/09:30pm 14.1 13.2 13.8 98 0.2 WNW 11 13 6 7 1019.6 - 5.0
21/09:00pm 14.0 13.0 13.5 97 0.3 NW 11 15 6 8 1019.8 1019.2 4.6
21/08:30pm 14.1 13.6 13.8 98 0.2 NNW 9 11 5 6 1019.9 - 3.6
21/08:00pm 14.2 13.3 13.7 97 0.3 W 11 13 6 7 1019.7 - 3.4
21/07:30pm 14.1 13.4 13.3 95 0.5 NW 9 11 5 6 1019.3 - 3.0
21/07:00pm 14.2 13.6 13.6 96 0.3 NW 9 11 5 6 1019.3 - 2.6
21/06:30pm 14.3 14.1 13.5 95 0.5 NW 7 9 4 5 1019.3 - 2.6
21/06:00pm 14.3 13.7 13.5 95 0.5 N 9 9 5 5 1018.9 1018.3 2.2
21/05:30pm 14.5 14.3 13.5 94 0.6 NNW 7 9 4 5 1019.3 - 1.8
21/05:00pm 14.7 14.0 13.1 90 0.9 NNW 9 11 5 6 1019.3 - 1.0
21/04:30pm 15.0 14.3 13.2 89 1.0 SSW 9 13 5 7 1019.2 - 0.4
21/04:00pm 15.5 13.3 13.3 87 1.3 WSW 17 20 9 11 1019.3 - 0.0
21/03:30pm 16.5 12.3 12.5 77 2.3 WSW 26 35 14 19 1019.2 - 0.0
21/03:00pm 17.3 13.2 12.6 74 2.7 WSW 26 32 14 17 1019.1 1018.5 0.0
21/02:30pm 18.0 14.6 12.5 70 3.1 WSW 22 30 12 16 1018.8 - 0.0
21/02:00pm 18.2 15.3 12.4 69 3.3 SW 19 28 10 15 1018.7 - 0.0
21/01:30pm 18.6 16.2 12.6 68 3.4 WSW 17 22 9 12 1018.5 - 0.0
21/01:00pm 18.6 17.4 12.8 69 3.3 SW 11 15 6 8 1018.6 - 0.0
21/12:30pm 18.6 17.3 12.6 68 3.4 SSW 11 17 6 9 1019.1 - 0.0
21/12:00pm 18.4 16.0 12.8 70 3.2 SSW 17 22 9 12 1019.6 1019.0 0.0
21/11:30am 17.2 15.5 13.5 79 2.1 SSW 15 22 8 12 1020.2 - 0.0
21/11:26am 17.1 15.4 13.6 80 2.0 SSW 15 22 8 12 1020.3 - 0.0
21/11:00am 17.0 15.8 14.1 83 1.7 SW 13 17 7 9 1020.5 - 0.0
21/10:30am 16.7 14.8 14.3 86 1.4 WSW 17 20 9 11 1021.0 - 0.0
21/10:00am 16.6 15.6 14.6 88 1.2 WSW 13 17 7 9 1020.9 - 0.0
21/09:30am 16.9 15.6 14.9 88 1.2 WSW 15 19 8 10 1021.1 - 0.0
21/09:00am 17.1 15.1 14.9 87 1.3 W 19 22 10 12 1021.1 1020.5 0.0
21/08:30am 17.8 18.1 16.0 89 1.1 NNW 9 13 5 7 1020.5 - 0.0
21/08:00am 17.3 17.4 15.6 90 1.0 N 9 11 5 6 1020.0 - 0.0
21/07:30am 16.5 17.1 15.4 93 0.7 NNE 6 9 3 5 1019.9 - 0.0
21/07:00am 15.8 16.6 14.7 93 0.6 N 4 6 2 3 1019.8 - 0.0
21/06:30am 15.5 15.3 14.7 95 0.5 NNE 9 11 5 6 1019.6 - 0.0
21/06:17am 15.2 14.8 14.2 94 0.6 N 9 11 5 6 1019.4 - 0.0
21/06:00am 15.4 14.8 14.6 95 0.5 NE 11 13 6 7 1019.1 1018.5 0.0
21/05:30am 15.1 14.8 14.5 96 0.3 NE 9 11 5 6 1019.0 - 0.0
21/05:00am 14.9 16.3 14.3 96 0.3 CALM 0 0 0 0 1019.2 - 0.0
21/04:30am 14.1 15.0 13.0 93 0.6 CALM 0 0 0 0 1019.0 - 0.0
21/04:00am 14.3 14.0 12.7 90 0.9 NE 6 7 3 4 1018.8 - 0.0
21/03:30am 15.5 16.8 14.0 91 0.9 CALM 0 0 0 0 1018.8 - 0.0
21/03:00am 15.7 14.7 14.6 93 0.6 WSW 13 19 7 10 1019.2 1018.6 0.0
21/02:30am 14.7 14.3 12.9 89 1.0 ESE 7 9 4 5 1019.1 - 0.0
21/02:00am 15.3 14.3 13.5 89 1.0 ENE 11 11 6 6 1018.8 - 0.0
21/01:30am 15.6 15.2 14.0 90 0.9 E 9 11 5 6 1018.9 - 0.0
21/01:00am 15.5 15.5 14.2 92 0.8 SE 7 9 4 5 1019.2 - 0.0
21/12:30am 14.9 14.7 13.1 89 1.0 E 6 7 3 4 1019.2 - 0.0
21/12:00am 14.9 14.5 12.9 88 1.1 SE 7 7 4 4 1019.2 1018.6 0.0
 
Date/Time
EST
Temp
°C
App
Temp
°C
Dew
Point
Rel
Hum
%
Delta-T
°C
Wind Press
QNH
hPa
Press
MSL
hPa
Rain
since 9 am
mm
Dir
 
Spd
km/h
Gust
km/h
Spd
kts
Gust
kts
20/11:30pm 16.1 15.5 13.4 84 1.5 NNE 9 11 5 6 1019.3 - 0.0
20/11:00pm 16.6 15.8 14.1 85 1.4 NE 11 11 6 6 1019.7 - 0.0
20/10:30pm 17.0 16.0 14.6 86 1.4 NE 13 13 7 7 1019.7 - 0.0
20/10:00pm 17.2 16.9 14.5 84 1.6 ENE 9 11 5 6 1020.1 - 0.0

Other Formats:

Comma delimited format used in spreadsheet applications
http://www.bom.gov.au/fwo/IDQ60801/IDQ60801.94552.axf

JavaScript Object Notation format (JSON) in row-major order
http://www.bom.gov.au/fwo/IDQ60801/IDQ60801.94552.json